sensor_id;sensor_type;location;lat;lon;timestamp;pressure;altitude;pressure_sealevel;temperature
18704;BMP180;9481;48.796;9.210;2022-12-18T00:01:23;97491.00;;;3.20
18704;BMP180;9481;48.796;9.210;2022-12-18T00:03:50;97505.00;;;3.20
18704;BMP180;9481;48.796;9.210;2022-12-18T00:06:17;97503.00;;;3.20
18704;BMP180;9481;48.796;9.210;2022-12-18T00:08:45;97514.00;;;3.10
18704;BMP180;9481;48.796;9.210;2022-12-18T00:11:25;97515.00;;;3.10
18704;BMP180;9481;48.796;9.210;2022-12-18T00:13:51;97500.00;;;3.10
18704;BMP180;9481;48.796;9.210;2022-12-18T00:16:20;97511.00;;;3.10
18704;BMP180;9481;48.796;9.210;2022-12-18T00:18:47;97514.00;;;3.00
18704;BMP180;9481;48.796;9.210;2022-12-18T00:21:14;97513.00;;;3.00
18704;BMP180;9481;48.796;9.210;2022-12-18T00:23:43;97521.00;;;2.90
18704;BMP180;9481;48.796;9.210;2022-12-18T00:26:24;97531.00;;;2.90
18704;BMP180;9481;48.796;9.210;2022-12-18T00:28:50;97519.00;;;2.90
18704;BMP180;9481;48.796;9.210;2022-12-18T00:31:21;97518.00;;;2.80
18704;BMP180;9481;48.796;9.210;2022-12-18T00:33:47;97511.00;;;2.80
18704;BMP180;9481;48.796;9.210;2022-12-18T00:36:22;97513.00;;;2.80
18704;BMP180;9481;48.796;9.210;2022-12-18T00:38:48;97513.00;;;2.80
18704;BMP180;9481;48.796;9.210;2022-12-18T00:41:17;97525.00;;;2.80
18704;BMP180;9481;48.796;9.210;2022-12-18T00:44:04;97535.00;;;2.70
18704;BMP180;9481;48.796;9.210;2022-12-18T00:46:31;97530.00;;;2.70
18704;BMP180;9481;48.796;9.210;2022-12-18T00:48:57;97521.00;;;2.70
18704;BMP180;9481;48.796;9.210;2022-12-18T00:51:25;97528.00;;;2.60
18704;BMP180;9481;48.796;9.210;2022-12-18T00:53:52;97530.00;;;2.60
18704;BMP180;9481;48.796;9.210;2022-12-18T00:56:18;97527.00;;;2.60
18704;BMP180;9481;48.796;9.210;2022-12-18T00:58:44;97530.00;;;2.50
18704;BMP180;9481;48.796;9.210;2022-12-18T01:01:10;97532.00;;;2.50
18704;BMP180;9481;48.796;9.210;2022-12-18T01:03:35;97529.00;;;2.50
18704;BMP180;9481;48.796;9.210;2022-12-18T01:06:10;97536.00;;;2.50
18704;BMP180;9481;48.796;9.210;2022-12-18T01:08:37;97532.00;;;2.50
18704;BMP180;9481;48.796;9.210;2022-12-18T01:11:14;97525.00;;;2.50
18704;BMP180;9481;48.796;9.210;2022-12-18T01:13:40;97524.00;;;2.60
18704;BMP180;9481;48.796;9.210;2022-12-18T01:16:07;97529.00;;;2.60
18704;BMP180;9481;48.796;9.210;2022-12-18T01:18:32;97535.00;;;2.60
18704;BMP180;9481;48.796;9.210;2022-12-18T01:20:58;97521.00;;;2.60
18704;BMP180;9481;48.796;9.210;2022-12-18T01:23:24;97523.00;;;2.60
18704;BMP180;9481;48.796;9.210;2022-12-18T01:25:50;97527.00;;;2.60
18704;BMP180;9481;48.796;9.210;2022-12-18T01:28:15;97528.00;;;2.60
18704;BMP180;9481;48.796;9.210;2022-12-18T01:30:41;97538.00;;;2.60
18704;BMP180;9481;48.796;9.210;2022-12-18T01:33:07;97527.00;;;2.60
18704;BMP180;9481;48.796;9.210;2022-12-18T01:35:32;97527.00;;;2.60
18704;BMP180;9481;48.796;9.210;2022-12-18T01:37:58;97532.00;;;2.60
18704;BMP180;9481;48.796;9.210;2022-12-18T01:40:24;97531.00;;;2.60
18704;BMP180;9481;48.796;9.210;2022-12-18T01:42:53;97526.00;;;2.60
18704;BMP180;9481;48.796;9.210;2022-12-18T01:45:26;97535.00;;;2.60
18704;BMP180;9481;48.796;9.210;2022-12-18T01:48:03;97535.00;;;2.60
18704;BMP180;9481;48.796;9.210;2022-12-18T01:50:42;97533.00;;;2.60
18704;BMP180;9481;48.796;9.210;2022-12-18T01:53:17;97537.00;;;2.60
18704;BMP180;9481;48.796;9.210;2022-12-18T01:55:53;97529.00;;;2.60
18704;BMP180;9481;48.796;9.210;2022-12-18T01:58:24;97533.00;;;2.60
18704;BMP180;9481;48.796;9.210;2022-12-18T02:00:55;97531.00;;;2.60
18704;BMP180;9481;48.796;9.210;2022-12-18T02:03:21;97522.00;;;2.60
18704;BMP180;9481;48.796;9.210;2022-12-18T02:08:58;97519.00;;;2.60
18704;BMP180;9481;48.796;9.210;2022-12-18T02:11:54;97523.00;;;2.60
18704;BMP180;9481;48.796;9.210;2022-12-18T02:14:34;97518.00;;;2.70
18704;BMP180;9481;48.796;9.210;2022-12-18T02:17:12;97529.00;;;2.70
18704;BMP180;9481;48.796;9.210;2022-12-18T02:20:42;97513.00;;;2.70
18704;BMP180;9481;48.796;9.210;2022-12-18T02:23:04;97523.00;;;2.80
18704;BMP180;9481;48.796;9.210;2022-12-18T02:26:14;97532.00;;;2.80
18704;BMP180;9481;48.796;9.210;2022-12-18T02:28:46;97529.00;;;2.80
18704;BMP180;9481;48.796;9.210;2022-12-18T02:31:24;97520.00;;;2.80
18704;BMP180;9481;48.796;9.210;2022-12-18T02:33:57;97527.00;;;2.80
18704;BMP180;9481;48.796;9.210;2022-12-18T02:36:26;97534.00;;;2.80
18704;BMP180;9481;48.796;9.210;2022-12-18T02:38:55;97542.00;;;2.90
18704;BMP180;9481;48.796;9.210;2022-12-18T02:41:22;97548.00;;;2.90
18704;BMP180;9481;48.796;9.210;2022-12-18T02:43:57;97546.00;;;2.90
18704;BMP180;9481;48.796;9.210;2022-12-18T02:46:34;97550.00;;;2.90
18704;BMP180;9481;48.796;9.210;2022-12-18T02:49:51;97549.00;;;2.90
18704;BMP180;9481;48.796;9.210;2022-12-18T02:53:06;97548.00;;;2.80
18704;BMP180;9481;48.796;9.210;2022-12-18T02:56:08;97551.00;;;2.80
18704;BMP180;9481;48.796;9.210;2022-12-18T02:59:01;97559.00;;;2.80
18704;BMP180;9481;48.796;9.210;2022-12-18T03:04:12;97546.00;;;2.80
18704;BMP180;9481;48.796;9.210;2022-12-18T03:06:46;97539.00;;;2.80
18704;BMP180;9481;48.796;9.210;2022-12-18T03:09:20;97522.00;;;2.80
18704;BMP180;9481;48.796;9.210;2022-12-18T03:11:55;97531.00;;;2.80
18704;BMP180;9481;48.796;9.210;2022-12-18T03:14:43;97534.00;;;2.80
18704;BMP180;9481;48.796;9.210;2022-12-18T03:17:15;97537.00;;;2.70
18704;BMP180;9481;48.796;9.210;2022-12-18T03:19:45;97538.00;;;2.70
18704;BMP180;9481;48.796;9.210;2022-12-18T03:22:13;97552.00;;;2.70
18704;BMP180;9481;48.796;9.210;2022-12-18T03:24:39;97553.00;;;2.70
18704;BMP180;9481;48.796;9.210;2022-12-18T03:27:11;97555.00;;;2.70
18704;BMP180;9481;48.796;9.210;2022-12-18T03:29:51;97565.00;;;2.70
18704;BMP180;9481;48.796;9.210;2022-12-18T03:32:31;97559.00;;;2.70
18704;BMP180;9481;48.796;9.210;2022-12-18T03:35:03;97561.00;;;2.70
18704;BMP180;9481;48.796;9.210;2022-12-18T03:37:31;97563.00;;;2.70
18704;BMP180;9481;48.796;9.210;2022-12-18T03:39:57;97558.00;;;2.60
18704;BMP180;9481;48.796;9.210;2022-12-18T03:45:43;97559.00;;;2.60
18704;BMP180;9481;48.796;9.210;2022-12-18T03:48:16;97561.00;;;2.50
18704;BMP180;9481;48.796;9.210;2022-12-18T03:51:22;97550.00;;;2.50
18704;BMP180;9481;48.796;9.210;2022-12-18T03:53:56;97553.00;;;2.50
18704;BMP180;9481;48.796;9.210;2022-12-18T03:56:28;97559.00;;;2.50
18704;BMP180;9481;48.796;9.210;2022-12-18T03:58:57;97563.00;;;2.40
18704;BMP180;9481;48.796;9.210;2022-12-18T04:01:32;97553.00;;;2.40
18704;BMP180;9481;48.796;9.210;2022-12-18T04:04:01;97559.00;;;2.40
18704;BMP180;9481;48.796;9.210;2022-12-18T04:06:29;97559.00;;;2.40
18704;BMP180;9481;48.796;9.210;2022-12-18T04:08:58;97554.00;;;2.30
18704;BMP180;9481;48.796;9.210;2022-12-18T04:11:24;97558.00;;;2.30
18704;BMP180;9481;48.796;9.210;2022-12-18T04:13:50;97558.00;;;2.30
18704;BMP180;9481;48.796;9.210;2022-12-18T04:16:15;97551.00;;;2.30
18704;BMP180;9481;48.796;9.210;2022-12-18T04:18:41;97545.00;;;2.20
18704;BMP180;9481;48.796;9.210;2022-12-18T04:21:06;97550.00;;;2.20
18704;BMP180;9481;48.796;9.210;2022-12-18T04:23:32;97559.00;;;2.20
18704;BMP180;9481;48.796;9.210;2022-12-18T04:25:58;97557.00;;;2.10
18704;BMP180;9481;48.796;9.210;2022-12-18T04:28:23;97542.00;;;2.10
18704;BMP180;9481;48.796;9.210;2022-12-18T04:30:49;97558.00;;;2.10
18704;BMP180;9481;48.796;9.210;2022-12-18T04:33:15;97559.00;;;2.10
18704;BMP180;9481;48.796;9.210;2022-12-18T04:35:41;97554.00;;;2.00
18704;BMP180;9481;48.796;9.210;2022-12-18T04:38:07;97568.00;;;2.00
18704;BMP180;9481;48.796;9.210;2022-12-18T04:40:37;97573.00;;;2.00
18704;BMP180;9481;48.796;9.210;2022-12-18T04:43:03;97573.00;;;2.00
18704;BMP180;9481;48.796;9.210;2022-12-18T04:45:32;97575.00;;;1.90
18704;BMP180;9481;48.796;9.210;2022-12-18T04:48:00;97572.00;;;1.90
18704;BMP180;9481;48.796;9.210;2022-12-18T04:50:26;97568.00;;;1.90
18704;BMP180;9481;48.796;9.210;2022-12-18T04:52:52;97567.00;;;1.90
18704;BMP180;9481;48.796;9.210;2022-12-18T04:55:18;97553.00;;;1.90
18704;BMP180;9481;48.796;9.210;2022-12-18T04:57:44;97543.00;;;1.90
18704;BMP180;9481;48.796;9.210;2022-12-18T05:00:11;97545.00;;;1.90
18704;BMP180;9481;48.796;9.210;2022-12-18T05:02:36;97544.00;;;1.90
18704;BMP180;9481;48.796;9.210;2022-12-18T05:05:03;97530.00;;;1.90
18704;BMP180;9481;48.796;9.210;2022-12-18T05:07:28;97529.00;;;1.90
18704;BMP180;9481;48.796;9.210;2022-12-18T05:09:54;97542.00;;;1.90
18704;BMP180;9481;48.796;9.210;2022-12-18T05:12:20;97540.00;;;1.90
18704;BMP180;9481;48.796;9.210;2022-12-18T05:14:50;97533.00;;;1.90
18704;BMP180;9481;48.796;9.210;2022-12-18T05:17:16;97546.00;;;1.80
18704;BMP180;9481;48.796;9.210;2022-12-18T05:19:42;97550.00;;;1.80
18704;BMP180;9481;48.796;9.210;2022-12-18T05:22:08;97549.00;;;1.80
18704;BMP180;9481;48.796;9.210;2022-12-18T05:24:34;97550.00;;;1.80
18704;BMP180;9481;48.796;9.210;2022-12-18T05:27:00;97560.00;;;1.70
18704;BMP180;9481;48.796;9.210;2022-12-18T05:29:26;97563.00;;;1.80
18704;BMP180;9481;48.796;9.210;2022-12-18T05:31:51;97564.00;;;1.70
18704;BMP180;9481;48.796;9.210;2022-12-18T05:34:17;97570.00;;;1.70
18704;BMP180;9481;48.796;9.210;2022-12-18T05:36:43;97568.00;;;1.70
18704;BMP180;9481;48.796;9.210;2022-12-18T05:39:09;97565.00;;;1.60
18704;BMP180;9481;48.796;9.210;2022-12-18T05:41:35;97561.00;;;1.60
18704;BMP180;9481;48.796;9.210;2022-12-18T05:44:00;97559.00;;;1.60
18704;BMP180;9481;48.796;9.210;2022-12-18T05:46:26;97563.00;;;1.60
18704;BMP180;9481;48.796;9.210;2022-12-18T05:48:52;97563.00;;;1.60
18704;BMP180;9481;48.796;9.210;2022-12-18T05:51:20;97571.00;;;1.60
18704;BMP180;9481;48.796;9.210;2022-12-18T05:53:46;97571.00;;;1.60
18704;BMP180;9481;48.796;9.210;2022-12-18T05:56:20;97551.00;;;1.50
18704;BMP180;9481;48.796;9.210;2022-12-18T05:58:47;97561.00;;;1.50
18704;BMP180;9481;48.796;9.210;2022-12-18T06:01:20;97561.00;;;1.50
18704;BMP180;9481;48.796;9.210;2022-12-18T06:03:46;97563.00;;;1.50
18704;BMP180;9481;48.796;9.210;2022-12-18T06:06:18;97559.00;;;1.50
18704;BMP180;9481;48.796;9.210;2022-12-18T06:08:44;97552.00;;;1.50
18704;BMP180;9481;48.796;9.210;2022-12-18T06:11:10;97562.00;;;1.50
18704;BMP180;9481;48.796;9.210;2022-12-18T06:13:37;97562.00;;;1.50
18704;BMP180;9481;48.796;9.210;2022-12-18T06:16:05;97576.00;;;1.50
18704;BMP180;9481;48.796;9.210;2022-12-18T06:18:31;97573.00;;;1.50
18704;BMP180;9481;48.796;9.210;2022-12-18T06:20:59;97577.00;;;1.50
18704;BMP180;9481;48.796;9.210;2022-12-18T06:23:26;97564.00;;;1.50
18704;BMP180;9481;48.796;9.210;2022-12-18T06:25:52;97556.00;;;1.50
18704;BMP180;9481;48.796;9.210;2022-12-18T06:28:18;97574.00;;;1.50
18704;BMP180;9481;48.796;9.210;2022-12-18T06:30:48;97559.00;;;1.50
18704;BMP180;9481;48.796;9.210;2022-12-18T06:33:15;97579.00;;;1.50
18704;BMP180;9481;48.796;9.210;2022-12-18T06:35:41;97590.00;;;1.50
18704;BMP180;9481;48.796;9.210;2022-12-18T06:38:07;97583.00;;;1.50
18704;BMP180;9481;48.796;9.210;2022-12-18T06:40:33;97589.00;;;1.50
18704;BMP180;9481;48.796;9.210;2022-12-18T06:42:59;97597.00;;;1.50
18704;BMP180;9481;48.796;9.210;2022-12-18T06:45:25;97593.00;;;1.50
18704;BMP180;9481;48.796;9.210;2022-12-18T06:47:51;97599.00;;;1.50
18704;BMP180;9481;48.796;9.210;2022-12-18T06:50:17;97589.00;;;1.60
18704;BMP180;9481;48.796;9.210;2022-12-18T06:52:42;97583.00;;;2.00
18704;BMP180;9481;48.796;9.210;2022-12-18T06:55:10;97582.00;;;2.50
18704;BMP180;9481;48.796;9.210;2022-12-18T06:57:36;97586.00;;;3.00
18704;BMP180;9481;48.796;9.210;2022-12-18T07:00:05;97582.00;;;3.40
18704;BMP180;9481;48.796;9.210;2022-12-18T07:02:31;97591.00;;;3.70
18704;BMP180;9481;48.796;9.210;2022-12-18T07:04:57;97595.00;;;3.80
18704;BMP180;9481;48.796;9.210;2022-12-18T07:07:22;97592.00;;;3.80
18704;BMP180;9481;48.796;9.210;2022-12-18T07:09:50;97601.00;;;3.60
18704;BMP180;9481;48.796;9.210;2022-12-18T07:12:16;97603.00;;;3.50
18704;BMP180;9481;48.796;9.210;2022-12-18T07:14:42;97607.00;;;3.30
18704;BMP180;9481;48.796;9.210;2022-12-18T07:17:08;97615.00;;;3.20
18704;BMP180;9481;48.796;9.210;2022-12-18T07:19:34;97613.00;;;3.00
18704;BMP180;9481;48.796;9.210;2022-12-18T07:22:00;97614.00;;;2.90
18704;BMP180;9481;48.796;9.210;2022-12-18T07:24:26;97611.00;;;2.80
18704;BMP180;9481;48.796;9.210;2022-12-18T07:26:52;97627.00;;;2.70
18704;BMP180;9481;48.796;9.210;2022-12-18T07:29:18;97618.00;;;2.60
18704;BMP180;9481;48.796;9.210;2022-12-18T07:31:43;97616.00;;;2.50
18704;BMP180;9481;48.796;9.210;2022-12-18T07:34:13;97613.00;;;2.40
18704;BMP180;9481;48.796;9.210;2022-12-18T07:36:40;97620.00;;;2.40
18704;BMP180;9481;48.796;9.210;2022-12-18T07:39:07;97629.00;;;2.30
18704;BMP180;9481;48.796;9.210;2022-12-18T07:41:33;97625.00;;;2.30
18704;BMP180;9481;48.796;9.210;2022-12-18T07:43:58;97628.00;;;2.30
18704;BMP180;9481;48.796;9.210;2022-12-18T07:46:24;97630.00;;;2.30
18704;BMP180;9481;48.796;9.210;2022-12-18T07:48:50;97632.00;;;2.30
18704;BMP180;9481;48.796;9.210;2022-12-18T07:51:17;97622.00;;;2.30
18704;BMP180;9481;48.796;9.210;2022-12-18T07:53:42;97634.00;;;2.30
18704;BMP180;9481;48.796;9.210;2022-12-18T07:56:11;97636.00;;;2.30
18704;BMP180;9481;48.796;9.210;2022-12-18T07:58:37;97636.00;;;2.30
18704;BMP180;9481;48.796;9.210;2022-12-18T08:01:11;97638.00;;;2.30
18704;BMP180;9481;48.796;9.210;2022-12-18T08:03:39;97648.00;;;2.30
18704;BMP180;9481;48.796;9.210;2022-12-18T08:06:08;97644.00;;;2.30
18704;BMP180;9481;48.796;9.210;2022-12-18T08:08:35;97626.00;;;2.30
18704;BMP180;9481;48.796;9.210;2022-12-18T08:11:01;97630.00;;;2.30
18704;BMP180;9481;48.796;9.210;2022-12-18T08:13:27;97635.00;;;2.30
18704;BMP180;9481;48.796;9.210;2022-12-18T08:16:06;97642.00;;;2.40
18704;BMP180;9481;48.796;9.210;2022-12-18T08:18:34;97641.00;;;2.40
18704;BMP180;9481;48.796;9.210;2022-12-18T08:21:18;97638.00;;;2.50
18704;BMP180;9481;48.796;9.210;2022-12-18T08:23:47;97644.00;;;2.50
18704;BMP180;9481;48.796;9.210;2022-12-18T08:26:13;97639.00;;;2.50
18704;BMP180;9481;48.796;9.210;2022-12-18T08:28:40;97648.00;;;2.50
18704;BMP180;9481;48.796;9.210;2022-12-18T08:31:07;97633.00;;;2.60
18704;BMP180;9481;48.796;9.210;2022-12-18T08:33:34;97637.00;;;2.60
18704;BMP180;9481;48.796;9.210;2022-12-18T08:36:01;97638.00;;;2.70
18704;BMP180;9481;48.796;9.210;2022-12-18T08:38:27;97637.00;;;2.70
18704;BMP180;9481;48.796;9.210;2022-12-18T08:41:08;97636.00;;;2.80
18704;BMP180;9481;48.796;9.210;2022-12-18T08:43:34;97643.00;;;2.80
18704;BMP180;9481;48.796;9.210;2022-12-18T08:46:20;97634.00;;;2.90
18704;BMP180;9481;48.796;9.210;2022-12-18T08:48:47;97643.00;;;2.90
18704;BMP180;9481;48.796;9.210;2022-12-18T08:51:15;97651.00;;;3.00
18704;BMP180;9481;48.796;9.210;2022-12-18T08:53:41;97645.00;;;3.00
18704;BMP180;9481;48.796;9.210;2022-12-18T08:56:07;97644.00;;;3.10
18704;BMP180;9481;48.796;9.210;2022-12-18T08:58:33;97641.00;;;3.10
18704;BMP180;9481;48.796;9.210;2022-12-18T09:01:08;97636.00;;;3.20
18704;BMP180;9481;48.796;9.210;2022-12-18T09:03:38;97629.00;;;3.20
18704;BMP180;9481;48.796;9.210;2022-12-18T09:06:04;97626.00;;;3.30
18704;BMP180;9481;48.796;9.210;2022-12-18T09:08:30;97627.00;;;3.30
18704;BMP180;9481;48.796;9.210;2022-12-18T09:10:56;97629.00;;;3.30
18704;BMP180;9481;48.796;9.210;2022-12-18T09:13:22;97627.00;;;3.40
18704;BMP180;9481;48.796;9.210;2022-12-18T09:15:51;97619.00;;;3.40
18704;BMP180;9481;48.796;9.210;2022-12-18T09:18:20;97620.00;;;3.50
18704;BMP180;9481;48.796;9.210;2022-12-18T09:20:46;97619.00;;;3.50
18704;BMP180;9481;48.796;9.210;2022-12-18T09:23:12;97626.00;;;3.50
18704;BMP180;9481;48.796;9.210;2022-12-18T09:25:39;97624.00;;;3.60
18704;BMP180;9481;48.796;9.210;2022-12-18T09:28:09;97616.00;;;3.60
18704;BMP180;9481;48.796;9.210;2022-12-18T09:30:38;97611.00;;;3.60
18704;BMP180;9481;48.796;9.210;2022-12-18T09:33:04;97618.00;;;3.70
18704;BMP180;9481;48.796;9.210;2022-12-18T09:35:30;97610.00;;;3.70
18704;BMP180;9481;48.796;9.210;2022-12-18T09:37:55;97621.00;;;3.70
18704;BMP180;9481;48.796;9.210;2022-12-18T09:40:25;97614.00;;;3.80
18704;BMP180;9481;48.796;9.210;2022-12-18T09:42:57;97618.00;;;3.80
18704;BMP180;9481;48.796;9.210;2022-12-18T09:45:25;97611.00;;;3.80
18704;BMP180;9481;48.796;9.210;2022-12-18T09:47:53;97614.00;;;3.90
18704;BMP180;9481;48.796;9.210;2022-12-18T09:50:30;97622.00;;;3.90
18704;BMP180;9481;48.796;9.210;2022-12-18T09:53:04;97609.00;;;3.90
18704;BMP180;9481;48.796;9.210;2022-12-18T09:55:40;97605.00;;;3.90
18704;BMP180;9481;48.796;9.210;2022-12-18T09:58:31;97604.00;;;3.90
18704;BMP180;9481;48.796;9.210;2022-12-18T10:00:58;97606.00;;;4.00
18704;BMP180;9481;48.796;9.210;2022-12-18T10:03:24;97612.00;;;4.00
18704;BMP180;9481;48.796;9.210;2022-12-18T10:08:36;97598.00;;;4.00
18704;BMP180;9481;48.796;9.210;2022-12-18T10:19:55;97606.00;;;4.10
18704;BMP180;9481;48.796;9.210;2022-12-18T10:22:40;97605.00;;;4.20
18704;BMP180;9481;48.796;9.210;2022-12-18T10:25:34;97620.00;;;4.20
18704;BMP180;9481;48.796;9.210;2022-12-18T10:28:12;97619.00;;;4.20
18704;BMP180;9481;48.796;9.210;2022-12-18T10:30:41;97628.00;;;4.20
18704;BMP180;9481;48.796;9.210;2022-12-18T10:33:18;97618.00;;;4.20
18704;BMP180;9481;48.796;9.210;2022-12-18T10:35:46;97606.00;;;4.20
18704;BMP180;9481;48.796;9.210;2022-12-18T10:43:38;97621.00;;;4.30
18704;BMP180;9481;48.796;9.210;2022-12-18T10:51:39;97618.00;;;4.50
18704;BMP180;9481;48.796;9.210;2022-12-18T10:54:22;97606.00;;;4.60
18704;BMP180;9481;48.796;9.210;2022-12-18T10:56:49;97621.00;;;4.70
18704;BMP180;9481;48.796;9.210;2022-12-18T10:59:18;97608.00;;;4.90
18704;BMP180;9481;48.796;9.210;2022-12-18T11:01:49;97630.00;;;5.00
18704;BMP180;9481;48.796;9.210;2022-12-18T11:04:22;97618.00;;;5.10
18704;BMP180;9481;48.796;9.210;2022-12-18T11:07:08;97610.00;;;5.20
18704;BMP180;9481;48.796;9.210;2022-12-18T11:09:39;97605.00;;;5.40
18704;BMP180;9481;48.796;9.210;2022-12-18T11:12:19;97613.00;;;5.50
18704;BMP180;9481;48.796;9.210;2022-12-18T11:14:51;97601.00;;;5.70
18704;BMP180;9481;48.796;9.210;2022-12-18T11:17:25;97602.00;;;5.80
18704;BMP180;9481;48.796;9.210;2022-12-18T11:20:38;97596.00;;;6.00
18704;BMP180;9481;48.796;9.210;2022-12-18T11:23:11;97591.00;;;6.20
18704;BMP180;9481;48.796;9.210;2022-12-18T11:25:39;97574.00;;;6.30
18704;BMP180;9481;48.796;9.210;2022-12-18T11:28:43;97586.00;;;6.50
18704;BMP180;9481;48.796;9.210;2022-12-18T11:31:28;97578.00;;;6.70
18704;BMP180;9481;48.796;9.210;2022-12-18T11:34:30;97576.00;;;7.10
18704;BMP180;9481;48.796;9.210;2022-12-18T11:37:00;97565.00;;;7.60
18704;BMP180;9481;48.796;9.210;2022-12-18T11:39:45;97579.00;;;8.60
18704;BMP180;9481;48.796;9.210;2022-12-18T11:42:25;97575.00;;;9.50
18704;BMP180;9481;48.796;9.210;2022-12-18T11:45:28;97567.00;;;10.50
18704;BMP180;9481;48.796;9.210;2022-12-18T11:48:16;97562.00;;;11.30
18704;BMP180;9481;48.796;9.210;2022-12-18T11:50:58;97560.00;;;12.00
18704;BMP180;9481;48.796;9.210;2022-12-18T11:53:26;97572.00;;;12.50
18704;BMP180;9481;48.796;9.210;2022-12-18T12:03:07;97557.00;;;14.10
18704;BMP180;9481;48.796;9.210;2022-12-18T12:05:59;97543.00;;;14.60
18704;BMP180;9481;48.796;9.210;2022-12-18T12:09:01;97538.00;;;14.90
18704;BMP180;9481;48.796;9.210;2022-12-18T12:15:02;97541.00;;;15.00
18704;BMP180;9481;48.796;9.210;2022-12-18T12:17:47;97541.00;;;15.00
18704;BMP180;9481;48.796;9.210;2022-12-18T12:23:55;97536.00;;;14.70
18704;BMP180;9481;48.796;9.210;2022-12-18T12:26:32;97542.00;;;14.60
18704;BMP180;9481;48.796;9.210;2022-12-18T12:29:28;97538.00;;;14.40
18704;BMP180;9481;48.796;9.210;2022-12-18T12:35:12;97544.00;;;14.10
18704;BMP180;9481;48.796;9.210;2022-12-18T12:38:08;97547.00;;;13.80
18704;BMP180;9481;48.796;9.210;2022-12-18T12:40:43;97546.00;;;13.60
18704;BMP180;9481;48.796;9.210;2022-12-18T12:43:41;97548.00;;;13.30
18704;BMP180;9481;48.796;9.210;2022-12-18T12:46:13;97548.00;;;13.10
18704;BMP180;9481;48.796;9.210;2022-12-18T12:49:11;97541.00;;;12.90
18704;BMP180;9481;48.796;9.210;2022-12-18T12:51:42;97553.00;;;12.80
18704;BMP180;9481;48.796;9.210;2022-12-18T12:54:19;97555.00;;;12.60
18704;BMP180;9481;48.796;9.210;2022-12-18T12:57:29;97555.00;;;12.40
18704;BMP180;9481;48.796;9.210;2022-12-18T13:02:39;97569.00;;;12.10
18704;BMP180;9481;48.796;9.210;2022-12-18T13:08:12;97568.00;;;12.00
18704;BMP180;9481;48.796;9.210;2022-12-18T13:10:47;97560.00;;;12.00
18704;BMP180;9481;48.796;9.210;2022-12-18T13:13:15;97567.00;;;11.90
18704;BMP180;9481;48.796;9.210;2022-12-18T13:15:46;97555.00;;;12.00
18704;BMP180;9481;48.796;9.210;2022-12-18T13:18:19;97577.00;;;12.00
18704;BMP180;9481;48.796;9.210;2022-12-18T13:23:34;97573.00;;;11.90
18704;BMP180;9481;48.796;9.210;2022-12-18T13:31:12;97561.00;;;11.40
18704;BMP180;9481;48.796;9.210;2022-12-18T13:33:41;97566.00;;;11.20
18704;BMP180;9481;48.796;9.210;2022-12-18T13:36:26;97560.00;;;10.90
18704;BMP180;9481;48.796;9.210;2022-12-18T13:41:42;97549.00;;;10.50
18704;BMP180;9481;48.796;9.210;2022-12-18T13:46:51;97548.00;;;10.10
18704;BMP180;9481;48.796;9.210;2022-12-18T13:49:41;97552.00;;;9.90
18704;BMP180;9481;48.796;9.210;2022-12-18T13:52:22;97542.00;;;9.80
18704;BMP180;9481;48.796;9.210;2022-12-18T13:54:53;97546.00;;;9.60
18704;BMP180;9481;48.796;9.210;2022-12-18T13:57:38;97556.00;;;9.50
18704;BMP180;9481;48.796;9.210;2022-12-18T14:00:27;97554.00;;;9.30
18704;BMP180;9481;48.796;9.210;2022-12-18T14:02:55;97560.00;;;9.20
18704;BMP180;9481;48.796;9.210;2022-12-18T14:05:36;97547.00;;;9.00
18704;BMP180;9481;48.796;9.210;2022-12-18T14:08:14;97543.00;;;8.90
18704;BMP180;9481;48.796;9.210;2022-12-18T14:10:44;97546.00;;;8.80
18704;BMP180;9481;48.796;9.210;2022-12-18T14:13:20;97553.00;;;8.70
18704;BMP180;9481;48.796;9.210;2022-12-18T14:15:48;97554.00;;;8.60
18704;BMP180;9481;48.796;9.210;2022-12-18T14:18:43;97556.00;;;8.50
18704;BMP180;9481;48.796;9.210;2022-12-18T14:21:27;97557.00;;;8.50
18704;BMP180;9481;48.796;9.210;2022-12-18T14:24:37;97542.00;;;8.40
18704;BMP180;9481;48.796;9.210;2022-12-18T14:27:22;97555.00;;;8.30
18704;BMP180;9481;48.796;9.210;2022-12-18T14:29:49;97566.00;;;8.20
18704;BMP180;9481;48.796;9.210;2022-12-18T14:32:20;97566.00;;;8.10
18704;BMP180;9481;48.796;9.210;2022-12-18T14:34:48;97558.00;;;8.00
18704;BMP180;9481;48.796;9.210;2022-12-18T14:37:21;97562.00;;;8.00
18704;BMP180;9481;48.796;9.210;2022-12-18T14:40:00;97563.00;;;7.90
18704;BMP180;9481;48.796;9.210;2022-12-18T14:42:28;97563.00;;;7.90
18704;BMP180;9481;48.796;9.210;2022-12-18T14:45:35;97563.00;;;7.80
18704;BMP180;9481;48.796;9.210;2022-12-18T14:48:17;97557.00;;;7.70
18704;BMP180;9481;48.796;9.210;2022-12-18T14:50:44;97562.00;;;7.70
18704;BMP180;9481;48.796;9.210;2022-12-18T14:53:25;97563.00;;;7.60
18704;BMP180;9481;48.796;9.210;2022-12-18T14:55:53;97566.00;;;7.50
18704;BMP180;9481;48.796;9.210;2022-12-18T14:58:19;97562.00;;;7.50
18704;BMP180;9481;48.796;9.210;2022-12-18T15:00:45;97562.00;;;7.50
18704;BMP180;9481;48.796;9.210;2022-12-18T15:03:19;97563.00;;;7.40
18704;BMP180;9481;48.796;9.210;2022-12-18T15:05:46;97564.00;;;7.40
18704;BMP180;9481;48.796;9.210;2022-12-18T15:08:39;97562.00;;;7.30
18704;BMP180;9481;48.796;9.210;2022-12-18T15:11:32;97565.00;;;7.20
18704;BMP180;9481;48.796;9.210;2022-12-18T15:14:03;97562.00;;;7.20
18704;BMP180;9481;48.796;9.210;2022-12-18T15:16:52;97567.00;;;7.10
18704;BMP180;9481;48.796;9.210;2022-12-18T15:19:20;97563.00;;;7.10
18704;BMP180;9481;48.796;9.210;2022-12-18T15:21:46;97559.00;;;7.00
18704;BMP180;9481;48.796;9.210;2022-12-18T15:24:22;97548.00;;;7.00
18704;BMP180;9481;48.796;9.210;2022-12-18T15:26:49;97547.00;;;6.90
18704;BMP180;9481;48.796;9.210;2022-12-18T15:29:22;97552.00;;;6.90
18704;BMP180;9481;48.796;9.210;2022-12-18T15:32:04;97550.00;;;6.80
18704;BMP180;9481;48.796;9.210;2022-12-18T15:34:32;97551.00;;;6.80
18704;BMP180;9481;48.796;9.210;2022-12-18T15:36:59;97547.00;;;6.80
18704;BMP180;9481;48.796;9.210;2022-12-18T15:39:25;97549.00;;;6.80
18704;BMP180;9481;48.796;9.210;2022-12-18T15:41:51;97553.00;;;6.70
18704;BMP180;9481;48.796;9.210;2022-12-18T15:44:39;97554.00;;;6.70
18704;BMP180;9481;48.796;9.210;2022-12-18T15:47:11;97551.00;;;6.60
18704;BMP180;9481;48.796;9.210;2022-12-18T15:49:38;97553.00;;;6.60
18704;BMP180;9481;48.796;9.210;2022-12-18T15:52:04;97561.00;;;6.60
18704;BMP180;9481;48.796;9.210;2022-12-18T15:54:29;97554.00;;;6.60
18704;BMP180;9481;48.796;9.210;2022-12-18T15:57:21;97557.00;;;6.50
18704;BMP180;9481;48.796;9.210;2022-12-18T15:59:51;97546.00;;;6.50
18704;BMP180;9481;48.796;9.210;2022-12-18T16:02:19;97559.00;;;6.50
18704;BMP180;9481;48.796;9.210;2022-12-18T16:04:46;97552.00;;;6.50
18704;BMP180;9481;48.796;9.210;2022-12-18T16:07:12;97553.00;;;6.50
18704;BMP180;9481;48.796;9.210;2022-12-18T16:09:38;97556.00;;;6.40
18704;BMP180;9481;48.796;9.210;2022-12-18T16:12:06;97544.00;;;6.40